createdAt,value
2023-04-25T00:01:44.952Z,98593.31
2023-04-25T00:04:50.686Z,98596.34
2023-04-25T00:07:53.610Z,98601.03
2023-04-25T00:10:56.611Z,98609.47
2023-04-25T00:14:00.860Z,98612.47
2023-04-25T00:17:03.893Z,98593.66
2023-04-25T00:20:08.852Z,98605.91
2023-04-25T00:23:11.744Z,98607.81
2023-04-25T00:26:14.440Z,98617.94
2023-04-25T00:29:17.583Z,98622.28
2023-04-25T00:32:20.570Z,98626.38
2023-04-25T00:35:23.515Z,98622.03
2023-04-25T00:38:26.276Z,98625.59
2023-04-25T00:41:31.221Z,98622.34
2023-04-25T00:44:36.489Z,98628.34
2023-04-25T00:47:39.778Z,98632.69
2023-04-25T00:50:43.575Z,98627.50
2023-04-25T00:53:47.258Z,98613.63
2023-04-25T00:56:50.080Z,98604.09
2023-04-25T00:59:54.117Z,98625.34
2023-04-25T01:02:57.137Z,98613.37
2023-04-25T01:06:00.323Z,98622.91
2023-04-25T01:09:04.010Z,98621.28
2023-04-25T01:12:07.202Z,98617.47
2023-04-25T01:15:11.183Z,98622.94
2023-04-25T01:18:14.301Z,98621.56
2023-04-25T01:21:17.243Z,98614.19
2023-04-25T01:24:21.710Z,98617.19
2023-04-25T01:27:25.092Z,98617.47
2023-04-25T01:30:30.276Z,98617.53
2023-04-25T01:33:33.445Z,98628.91
2023-04-25T01:36:36.795Z,98625.62
2023-04-25T01:39:39.845Z,98619.91
2023-04-25T01:42:44.637Z,98614.19
2023-04-25T01:45:48.939Z,98617.19
2023-04-25T01:48:52.461Z,98610.91
2023-04-25T01:51:55.302Z,98614.44
2023-04-25T01:55:00.665Z,98604.94
2023-04-25T01:58:10.117Z,98622.97
2023-04-25T02:01:15.217Z,98624.88
2023-04-25T02:04:18.940Z,98614.50
2023-04-25T02:07:22.389Z,98592.72
2023-04-25T02:10:27.548Z,98612.63
2023-04-25T02:13:30.876Z,98612.63
2023-04-25T02:16:33.981Z,98605.03
2023-04-25T02:19:37.100Z,98598.22
2023-04-25T02:22:40.258Z,98612.97
2023-04-25T02:25:43.202Z,98606.13
2023-04-25T02:28:46.263Z,98603.94
2023-04-25T02:31:49.661Z,98606.16
2023-04-25T02:34:53.946Z,98589.84
2023-04-25T02:37:56.963Z,98600.72
2023-04-25T02:40:59.657Z,98599.91
2023-04-25T02:44:02.706Z,98601.78
2023-04-25T02:47:05.429Z,98583.56
2023-04-25T02:50:08.714Z,98586.84
2023-04-25T02:53:11.828Z,98599.91
2023-04-25T02:56:15.472Z,98603.47
2023-04-25T02:59:18.173Z,98607.84
2023-04-25T03:02:21.574Z,98606.50
2023-04-25T03:05:24.340Z,98602.69
2023-04-25T03:08:30.579Z,98599.72
2023-04-25T03:11:33.329Z,98597.00
2023-04-25T03:14:37.196Z,98577.41
2023-04-25T03:17:39.923Z,98592.09
2023-04-25T03:20:43.932Z,98591.59
2023-04-25T03:23:46.694Z,98590.75
2023-04-25T03:26:49.664Z,98603.84
2023-04-25T03:29:52.391Z,98600.59
2023-04-25T03:32:56.443Z,98587.81
2023-04-25T03:35:59.209Z,98600.34
2023-04-25T03:39:03.663Z,98594.91
2023-04-25T03:42:06.838Z,98602.53
2023-04-25T03:45:10.030Z,98605.56
2023-04-25T03:48:12.943Z,98608.00
2023-04-25T03:51:15.943Z,98614.53
2023-04-25T03:54:19.092Z,98611.81
2023-04-25T03:57:22.815Z,98615.91
2023-04-25T04:00:26.329Z,98634.44
2023-04-25T04:03:29.801Z,98630.09
2023-04-25T04:06:33.136Z,98609.41
2023-04-25T04:09:37.718Z,98637.75
2023-04-25T04:12:40.740Z,98647.81
2023-04-25T04:15:43.899Z,98649.19
2023-04-25T04:18:47.224Z,98637.47
2023-04-25T04:21:50.367Z,98650.00
2023-04-25T04:24:53.216Z,98644.03
2023-04-25T04:27:56.574Z,98655.44
2023-04-25T04:30:59.342Z,98663.34
2023-04-25T04:34:02.809Z,98668.00
2023-04-25T04:37:07.946Z,98660.34
2023-04-25T04:40:12.334Z,98669.06
2023-04-25T04:43:18.211Z,98661.44
2023-04-25T04:46:22.751Z,98676.69
2023-04-25T04:49:27.422Z,98664.44
2023-04-25T04:52:31.385Z,98679.16
2023-04-25T04:55:35.015Z,98675.56
2023-04-25T04:58:38.539Z,98682.09
2023-04-25T05:01:41.637Z,98676.09
2023-04-25T05:04:44.902Z,98679.62
2023-04-25T05:07:47.976Z,98687.47
2023-04-25T05:10:53.416Z,98680.63
2023-04-25T05:13:56.241Z,98680.63
2023-04-25T05:17:00.742Z,98666.16
2023-04-25T05:20:09.896Z,98673.25
2023-04-25T05:23:14.007Z,98691.50
2023-04-25T05:26:17.144Z,98683.63
2023-04-25T05:29:20.164Z,98697.25
2023-04-25T05:32:28.365Z,98700.53
2023-04-25T05:35:32.291Z,98689.34
2023-04-25T05:38:35.310Z,98710.34
2023-04-25T05:41:40.891Z,98697.50
2023-04-25T05:44:43.925Z,98704.28
2023-04-25T05:47:47.418Z,98702.09
2023-04-25T05:50:52.575Z,98684.59
2023-04-25T05:53:55.818Z,98709.91
2023-04-25T05:56:58.824Z,98706.25
2023-04-25T06:00:02.259Z,98699.59
2023-04-25T06:03:08.979Z,98696.31
2023-04-25T06:06:13.177Z,98711.00
2023-04-25T06:09:16.185Z,98706.34
2023-04-25T06:12:19.317Z,98718.47
2023-04-25T06:15:28.081Z,98711.16
2023-04-25T06:18:31.852Z,98717.59
2023-04-25T06:21:34.600Z,98721.22
2023-04-25T06:24:37.641Z,98722.25
2023-04-25T06:27:40.526Z,98717.28
2023-04-25T06:30:44.151Z,98712.81
2023-04-25T06:33:47.470Z,98704.19
2023-04-25T06:36:50.790Z,98707.31
2023-04-25T06:39:53.696Z,98706.03
2023-04-25T06:42:56.832Z,98703.72
2023-04-25T06:46:01.971Z,98702.09
2023-04-25T06:49:05.912Z,98701.75
2023-04-25T06:52:09.752Z,98701.12
2023-04-25T06:55:12.863Z,98686.91
2023-04-25T06:58:17.513Z,98692.84
2023-04-25T07:01:23.897Z,98691.72
2023-04-25T07:04:27.053Z,98696.34
2023-04-25T07:07:31.608Z,98678.84
2023-04-25T07:10:34.657Z,98680.13
2023-04-25T07:13:38.344Z,98683.22
2023-04-25T07:16:41.718Z,98683.44
2023-04-25T07:19:44.962Z,98685.88
2023-04-25T07:22:47.742Z,98685.97
2023-04-25T07:25:50.954Z,98687.44
2023-04-25T07:28:57.218Z,98675.53
2023-04-25T07:32:01.535Z,98680.94
2023-04-25T07:35:04.994Z,98679.31
2023-04-25T07:38:08.940Z,98683.50
2023-04-25T07:41:12.200Z,98677.81
2023-04-25T07:44:15.816Z,98691.06
2023-04-25T07:47:20.409Z,98694.50
2023-04-25T07:50:23.602Z,98685.53
2023-04-25T07:53:26.384Z,98671.34
2023-04-25T07:56:38.458Z,98679.72
2023-04-25T07:59:48.624Z,98677.81
2023-04-25T08:02:52.334Z,98672.47
2023-04-25T08:05:56.749Z,98680.75
2023-04-25T08:09:00.785Z,98674.84
2023-04-25T08:12:05.701Z,98671.50
2023-04-25T08:15:09.701Z,98649.19
2023-04-25T08:18:15.059Z,98653.72
2023-04-25T08:21:20.493Z,98657.44
2023-04-25T08:24:24.439Z,98667.72
2023-04-25T08:27:27.229Z,98663.75
2023-04-25T08:30:30.914Z,98666.25
2023-04-25T08:33:34.245Z,98643.47
2023-04-25T08:36:39.765Z,98662.59
2023-04-25T08:39:43.627Z,98656.09
2023-04-25T08:42:51.691Z,98662.44
2023-04-25T08:45:55.688Z,98657.78
2023-04-25T08:49:03.302Z,98662.41
2023-04-25T08:52:07.463Z,98664.56
2023-04-25T08:55:14.004Z,98652.91
2023-04-25T08:58:17.251Z,98654.25
2023-04-25T09:01:20.539Z,98649.00
2023-04-25T09:04:24.113Z,98657.13
2023-04-25T09:07:27.176Z,98643.44
2023-04-25T09:13:35.000Z,98643.13
2023-04-25T09:16:58.163Z,98649.12
2023-04-25T09:20:09.170Z,98647.25
2023-04-25T09:23:12.203Z,98658.22
2023-04-25T09:26:18.049Z,98652.59
2023-04-25T09:29:31.068Z,98656.06
2023-04-25T09:32:34.686Z,98656.81
2023-04-25T09:35:42.215Z,98650.56
2023-04-25T09:38:46.964Z,98663.41
2023-04-25T09:41:55.050Z,98666.81
2023-04-25T09:44:59.028Z,98654.38
2023-04-25T09:48:07.897Z,98663.31
2023-04-25T09:51:17.158Z,98667.50
2023-04-25T09:54:20.263Z,98672.81
2023-04-25T09:57:26.967Z,98673.25
2023-04-25T10:00:31.375Z,98667.13
2023-04-25T10:03:43.088Z,98673.28
2023-04-25T10:06:50.301Z,98667.59
2023-04-25T10:10:04.330Z,98681.56
2023-04-25T10:13:07.528Z,98681.69
2023-04-25T10:16:10.542Z,98673.50
2023-04-25T10:19:14.323Z,98663.72
2023-04-25T10:22:39.220Z,98666.72
2023-04-25T10:25:42.971Z,98659.66
2023-04-25T10:29:00.651Z,98665.03
2023-04-25T10:32:03.664Z,98657.38
2023-04-25T10:35:17.906Z,98661.94
2023-04-25T10:38:20.716Z,98674.87
2023-04-25T10:41:24.096Z,98665.31
2023-04-25T10:44:31.223Z,98653.28
2023-04-25T10:47:38.268Z,98658.69
2023-04-25T10:50:40.993Z,98663.28
2023-04-25T10:53:48.388Z,98643.97
2023-04-25T10:56:52.352Z,98649.59
2023-04-25T10:59:55.747Z,98651.56
2023-04-25T11:03:02.011Z,98653.94
2023-04-25T11:06:07.883Z,98646.50
2023-04-25T11:09:14.619Z,98652.47
2023-04-25T11:12:18.644Z,98639.19
2023-04-25T11:15:21.530Z,98638.03
2023-04-25T11:18:28.048Z,98641.59
2023-04-25T11:21:32.814Z,98639.16
2023-04-25T11:24:37.462Z,98638.88
2023-04-25T11:27:57.011Z,98647.06
2023-04-25T11:31:00.117Z,98640.81
2023-04-25T11:34:03.574Z,98644.81
2023-04-25T11:37:07.462Z,98625.84
2023-04-25T11:40:11.207Z,98634.72
2023-04-25T11:43:14.374Z,98635.31
2023-04-25T11:46:17.585Z,98624.97
2023-04-25T11:49:20.717Z,98642.59
2023-04-25T11:52:23.487Z,98627.66
2023-04-25T11:55:26.883Z,98619.16
2023-04-25T11:58:29.645Z,98615.19
2023-04-25T12:01:35.722Z,98617.72
2023-04-25T12:04:42.533Z,98613.87
2023-04-25T12:08:14.366Z,98604.97
2023-04-25T12:11:23.470Z,98608.34
2023-04-25T12:14:32.426Z,98602.53
2023-04-25T12:17:35.937Z,98599.75
2023-04-25T12:20:38.693Z,98595.38
2023-04-25T12:23:42.704Z,98600.69
2023-04-25T12:26:48.898Z,98593.97
2023-04-25T12:29:56.968Z,98589.06
2023-04-25T12:32:59.669Z,98584.25
2023-04-25T12:36:12.286Z,98576.03
2023-04-25T12:39:18.803Z,98585.69
2023-04-25T12:42:21.849Z,98588.56
2023-04-25T12:45:25.151Z,98587.75
2023-04-25T12:48:28.095Z,98574.78
2023-04-25T12:51:30.944Z,98587.94
2023-04-25T12:54:33.919Z,98576.69
2023-04-25T12:57:36.596Z,98570.50
2023-04-25T13:00:39.681Z,98576.09
2023-04-25T13:03:42.539Z,98566.84
2023-04-25T13:06:45.698Z,98575.09
2023-04-25T13:09:48.327Z,98558.22
2023-04-25T13:12:51.650Z,98566.66
2023-04-25T13:15:54.410Z,98557.75
2023-04-25T13:18:57.771Z,98568.94
2023-04-25T13:22:00.691Z,98561.97
2023-04-25T13:25:04.486Z,98567.00
2023-04-25T13:28:07.236Z,98567.53
2023-04-25T13:31:10.468Z,98568.31
2023-04-25T13:34:13.837Z,98554.38
2023-04-25T13:37:16.795Z,98576.91
2023-04-25T13:40:19.513Z,98573.47
2023-04-25T13:43:22.985Z,98575.44
2023-04-25T13:46:44.901Z,98578.50
2023-04-25T13:49:48.764Z,98573.28
2023-04-25T13:52:52.067Z,98580.16
2023-04-25T13:55:54.996Z,98576.31
2023-04-25T13:58:58.294Z,98575.19
2023-04-25T14:02:01.565Z,98576.34
2023-04-25T14:05:05.839Z,98561.06
2023-04-25T14:08:10.545Z,98571.38
2023-04-25T14:11:13.643Z,98570.25
2023-04-25T14:14:17.239Z,98547.56
2023-04-25T14:17:21.035Z,98560.69
2023-04-25T14:20:25.019Z,98555.66
2023-04-25T14:23:27.936Z,98565.84
2023-04-25T14:26:31.306Z,98558.22
2023-04-25T14:29:34.618Z,98563.44
2023-04-25T14:32:39.125Z,98550.09
2023-04-25T14:35:42.459Z,98566.09
2023-04-25T14:38:45.117Z,98575.56
2023-04-25T14:41:48.255Z,98589.94
2023-04-25T14:44:51.120Z,98581.75
2023-04-25T14:47:54.203Z,98587.06
2023-04-25T14:51:00.749Z,98585.69
2023-04-25T14:54:03.884Z,98595.62
2023-04-25T14:57:06.803Z,98614.94
2023-04-25T15:00:10.697Z,98621.94
2023-04-25T15:03:14.620Z,98621.16
2023-04-25T15:06:17.755Z,98641.78
2023-04-25T15:09:20.537Z,98652.91
2023-04-25T15:12:23.899Z,98629.03
2023-04-25T15:15:27.712Z,98609.69
2023-04-25T15:18:30.721Z,98596.84
2023-04-25T15:21:33.840Z,98587.28
2023-04-25T15:24:36.981Z,98580.72
2023-04-25T15:27:44.719Z,98592.03
2023-04-25T15:30:48.066Z,98584.50
2023-04-25T15:33:51.492Z,98592.22
2023-04-25T15:36:54.670Z,98588.28
2023-04-25T15:40:09.777Z,98578.69
2023-04-25T15:43:16.225Z,98580.00
2023-04-25T15:46:19.128Z,98579.12
2023-04-25T15:49:22.949Z,98576.75
2023-04-25T15:52:26.522Z,98589.94
2023-04-25T15:55:29.549Z,98583.03
2023-04-25T15:58:32.579Z,98580.81
2023-04-25T16:01:35.695Z,98592.31
2023-04-25T16:04:39.508Z,98588.47
2023-04-25T16:07:44.278Z,98585.03
2023-04-25T16:10:47.428Z,98579.94
2023-04-25T16:13:50.396Z,98598.75
2023-04-25T16:16:54.016Z,98595.12
2023-04-25T16:19:57.318Z,98581.69
2023-04-25T16:23:00.502Z,98584.31
2023-04-25T16:26:03.429Z,98581.56
2023-04-25T16:29:07.367Z,98596.09
2023-04-25T16:32:11.578Z,98591.91
2023-04-25T16:35:17.500Z,98602.59
2023-04-25T16:38:20.424Z,98595.88
2023-04-25T16:41:23.437Z,98592.72
2023-04-25T16:44:26.380Z,98608.81
2023-04-25T16:47:29.403Z,98601.84
2023-04-25T16:50:33.311Z,98615.78
2023-04-25T16:53:36.397Z,98620.00
2023-04-25T16:56:39.118Z,98616.81
2023-04-25T16:59:42.146Z,98616.69
2023-04-25T17:02:45.232Z,98613.63
2023-04-25T17:05:51.414Z,98627.94
2023-04-25T17:08:54.629Z,98605.44
2023-04-25T17:11:57.909Z,98623.78
2023-04-25T17:15:01.337Z,98621.94
2023-04-25T17:18:04.730Z,98625.69
2023-04-25T17:21:08.570Z,98633.00
2023-04-25T17:24:12.209Z,98637.53
2023-04-25T17:27:14.970Z,98634.31
2023-04-25T17:30:19.231Z,98637.22
2023-04-25T17:33:26.858Z,98633.94
2023-04-25T17:36:30.867Z,98654.97
2023-04-25T17:39:33.598Z,98648.56
2023-04-25T17:42:36.675Z,98654.94
2023-04-25T17:45:39.505Z,98652.59
2023-04-25T17:48:42.513Z,98675.13
2023-04-25T17:51:45.460Z,98676.84
2023-04-25T17:54:49.646Z,98674.25
2023-04-25T17:57:52.649Z,98683.34
2023-04-25T18:00:56.259Z,98685.34
2023-04-25T18:03:59.384Z,98689.22
2023-04-25T18:07:02.207Z,98689.25
2023-04-25T18:10:06.168Z,98710.28
2023-04-25T18:13:09.263Z,98713.53
2023-04-25T18:16:12.296Z,98707.97
2023-04-25T18:19:24.369Z,98724.22
2023-04-25T18:22:28.813Z,98715.66
2023-04-25T18:25:31.753Z,98730.94
2023-04-25T18:28:34.843Z,98733.41
2023-04-25T18:31:38.070Z,98731.56
2023-04-25T18:34:46.181Z,98753.38
2023-04-25T18:37:49.686Z,98756.34
2023-04-25T18:41:01.391Z,98763.69
2023-04-25T18:44:13.086Z,98764.88
2023-04-25T18:47:16.876Z,98776.41
2023-04-25T18:50:21.599Z,98767.94
2023-04-25T18:53:24.613Z,98780.22
2023-04-25T18:56:28.376Z,98785.72
2023-04-25T18:59:31.642Z,98786.56
2023-04-25T19:02:38.068Z,98769.13
2023-04-25T19:05:41.144Z,98795.00
2023-04-25T19:08:44.219Z,98805.91
2023-04-25T19:11:47.224Z,98801.00
2023-04-25T19:14:50.804Z,98804.56
2023-04-25T19:17:53.822Z,98799.91
2023-04-25T19:20:56.658Z,98796.13
2023-04-25T19:24:01.472Z,98789.03
2023-04-25T19:27:04.184Z,98792.03
2023-04-25T19:30:08.757Z,98806.44
2023-04-25T19:33:11.484Z,98809.44
2023-04-25T19:36:14.570Z,98810.25
2023-04-25T19:39:17.186Z,98810.25
2023-04-25T19:42:20.248Z,98798.53
2023-04-25T19:45:23.383Z,98809.16
2023-04-25T19:48:26.586Z,98799.59
2023-04-25T19:51:31.488Z,98811.84
2023-04-25T19:54:35.964Z,98809.91
2023-04-25T19:57:39.159Z,98818.88
2023-04-25T20:00:42.335Z,98820.22
2023-04-25T20:03:48.301Z,98826.19
2023-04-25T20:06:51.185Z,98821.31
2023-04-25T20:09:54.097Z,98816.41
2023-04-25T20:12:56.823Z,98815.59
2023-04-25T20:16:02.524Z,98831.41
2023-04-25T20:19:05.755Z,98825.13
2023-04-25T20:22:08.737Z,98832.19
2023-04-25T20:25:12.316Z,98834.34
2023-04-25T20:28:15.223Z,98826.69
2023-04-25T20:31:17.970Z,98831.84
2023-04-25T20:34:22.153Z,98838.91
2023-04-25T20:37:24.818Z,98844.31
2023-04-25T20:40:28.523Z,98840.97
2023-04-25T20:43:31.453Z,98844.44
2023-04-25T20:46:36.368Z,98853.13
2023-04-25T20:49:39.305Z,98860.69
2023-04-25T20:52:43.254Z,98863.94
2023-04-25T20:55:46.523Z,98855.78
2023-04-25T20:58:50.326Z,98864.53
2023-04-25T21:01:54.517Z,98861.59
2023-04-25T21:04:57.486Z,98849.28
2023-04-25T21:08:00.123Z,98866.72
2023-04-25T21:11:03.204Z,98859.91
2023-04-25T21:14:05.904Z,98872.47
2023-04-25T21:17:09.015Z,98866.97
2023-04-25T21:20:12.010Z,98869.44
2023-04-25T21:23:15.608Z,98878.91
2023-04-25T21:26:18.346Z,98875.59
2023-04-25T21:29:21.466Z,98884.84
2023-04-25T21:32:24.353Z,98873.09
2023-04-25T21:35:27.331Z,98879.63
2023-04-25T21:38:30.070Z,98890.16
2023-04-25T21:41:33.698Z,98882.00
2023-04-25T21:44:36.921Z,98888.44
2023-04-25T21:47:39.838Z,98890.03
2023-04-25T21:50:42.611Z,98886.44
2023-04-25T21:53:45.730Z,98885.41
2023-04-25T21:56:48.601Z,98882.81
2023-04-25T21:59:51.604Z,98898.13
2023-04-25T22:02:57.841Z,98893.78
2023-04-25T22:06:01.307Z,98901.41
2023-04-25T22:09:04.819Z,98906.59
2023-04-25T22:12:08.109Z,98899.91
2023-04-25T22:15:12.923Z,98909.78
2023-04-25T22:18:16.432Z,98918.91
2023-04-25T22:21:19.151Z,98913.28
2023-04-25T22:24:22.523Z,98926.06
2023-04-25T22:27:25.245Z,98931.72
2023-04-25T22:30:31.045Z,98934.37
2023-04-25T22:33:34.243Z,98932.75
2023-04-25T22:36:37.123Z,98937.88
2023-04-25T22:39:40.323Z,98949.59
2023-04-25T22:42:44.244Z,98940.13
2023-04-25T22:45:47.244Z,98939.00
2023-04-25T22:48:50.781Z,98943.84
2023-04-25T22:51:57.577Z,98941.44
2023-04-25T22:55:02.916Z,98951.50
2023-04-25T22:58:08.656Z,98956.59
2023-04-25T23:01:11.848Z,98952.75
2023-04-25T23:04:15.048Z,98955.31
2023-04-25T23:07:18.383Z,98948.94
2023-04-25T23:10:21.113Z,98963.38
2023-04-25T23:13:24.813Z,98956.81
2023-04-25T23:16:27.637Z,98966.78
2023-04-25T23:19:30.778Z,98977.00
2023-04-25T23:22:33.760Z,98974.22
2023-04-25T23:25:42.625Z,98974.16
2023-04-25T23:28:46.911Z,98973.41
2023-04-25T23:31:49.861Z,98972.87
2023-04-25T23:34:52.533Z,98971.84
2023-04-25T23:37:55.946Z,98986.22
2023-04-25T23:40:59.218Z,98967.03
2023-04-25T23:44:03.557Z,98994.16
2023-04-25T23:47:06.235Z,98999.03
2023-04-25T23:50:09.683Z,98995.69
2023-04-25T23:53:12.505Z,98990.25
2023-04-25T23:56:15.545Z,99005.53
2023-04-25T23:59:18.249Z,98996.13
